Time;durP1;ratioP1;P1;durP2;ratioP2;P2;SDS_P1;SDS_P2;PMS_P1;PMS_P2;Temp;Humidity;BMP_temperature;BMP_pressure;BME280_temperature;BME280_humidity;BME280_pressure;Samples;Min_cycle;Max_cycle;Signal;HPM_P1;HPM_P2
2022/12/05 06:23:42;;;;;;;21.97;14.13;;;;;;;-3.40;100.00;99143.45;1890581;76;27795;-58
2022/12/05 06:26:11;;;;;;;19.77;12.50;;;;;;;-3.45;100.00;99156.25;1861482;77;20887;-58
2022/12/05 06:28:39;;;;;;;15.85;10.55;;;;;;;-3.41;100.00;99157.53;1861465;77;21120;-58
2022/12/05 06:31:17;;;;;;;11.25;8.10;;;;;;;-3.35;100.00;99147.69;1861380;77;20875;-58
2022/12/05 06:33:44;;;;;;;8.88;6.08;;;;;;;-3.27;100.00;99144.20;1860183;77;21517;-59
2022/12/05 06:36:15;;;;;;;10.65;6.83;;;;;;;-3.19;100.00;99158.54;1853441;77;20895;-59
2022/12/05 06:38:42;;;;;;;10.23;6.17;;;;;;;-3.13;100.00;99159.95;1839859;76;20939;-64
2022/12/05 06:41:12;;;;;;;9.05;6.10;;;;;;;-3.06;100.00;99151.72;1821016;78;21218;-60
2022/12/05 06:43:39;;;;;;;10.18;7.37;;;;;;;-3.00;100.00;99153.66;1825203;77;20861;-60
2022/12/05 06:46:06;;;;;;;10.50;6.90;;;;;;;-2.97;100.00;99148.03;1831269;78;20952;-60
2022/12/05 06:48:33;;;;;;;8.15;5.28;;;;;;;-2.93;100.00;99150.64;1831157;78;20924;-58
2022/12/05 06:51:00;;;;;;;8.15;5.20;;;;;;;-2.90;100.00;99152.10;1831235;78;21430;-59
2022/12/05 06:53:27;;;;;;;7.33;5.60;;;;;;;-2.87;100.00;99162.22;1831370;78;21142;-59
2022/12/05 06:55:59;;;;;;;9.95;6.08;;;;;;;-2.83;100.00;99151.19;1842168;77;20908;-60
2022/12/05 06:58:26;;;;;;;10.00;7.33;;;;;;;-2.82;100.00;99162.02;1846724;77;20965;-58
2022/12/05 07:03:50;;;;;;;6.47;4.80;;;;;;;-2.70;100.00;99168.96;1861310;77;21000;-59
2022/12/05 07:06:22;;;;;;;6.80;5.03;;;;;;;-2.69;100.00;99159.30;1819798;77;21048;-59
2022/12/05 07:08:49;;;;;;;11.25;6.22;;;;;;;-2.69;100.00;99165.36;1857062;77;20887;-57
2022/12/05 07:11:16;;;;;;;8.70;5.75;;;;;;;-2.67;100.00;99163.86;1861508;77;20955;-58
2022/12/05 07:13:44;;;;;;;11.45;5.95;;;;;;;-2.65;100.00;99164.49;1861536;77;20963;-60
2022/12/05 07:16:12;;;;;;;9.93;5.33;;;;;;;-2.68;100.00;99160.91;1861533;77;20864;-58
2022/12/05 07:18:46;;;;;;;10.63;5.60;;;;;;;-2.73;100.00;99171.14;1861357;77;21219;-60
2022/12/05 07:21:16;;;;;;;9.13;6.22;;;;;;;-2.72;100.00;99162.27;1860370;77;20958;-58
2022/12/05 07:23:45;;;;;;;8.78;5.67;;;;;;;-2.69;100.00;99165.84;1826385;77;21450;-58
2022/12/05 07:26:14;;;;;;;12.10;6.97;;;;;;;-2.68;100.00;99158.28;1831791;77;20943;-59
2022/12/05 07:28:44;;;;;;;20.80;13.00;;;;;;;-2.68;100.00;99163.53;1830564;77;21102;-58
2022/12/05 07:31:16;;;;;;;20.08;6.70;;;;;;;-2.65;100.00;99172.36;1846769;77;21181;-59
2022/12/05 07:33:42;;;;;;;8.98;6.15;;;;;;;-2.64;100.00;99172.70;1848800;77;20967;-58
2022/12/05 07:36:13;;;;;;;10.68;7.05;;;;;;;-2.63;100.00;99176.92;1848952;77;20892;-58
2022/12/05 07:38:41;;;;;;;8.70;5.83;;;;;;;-2.64;100.00;99175.31;1814347;78;20927;-57
2022/12/05 07:41:20;;;;;;;13.95;8.73;;;;;;;-2.65;100.00;99180.23;1841636;77;20915;-57
2022/12/05 07:43:53;;;;;;;27.87;13.70;;;;;;;-2.66;99.90;99178.62;1827562;77;21236;-58
2022/12/05 07:46:29;;;;;;;38.02;15.72;;;;;;;-2.64;99.75;99185.81;1834199;77;21432;-60
2022/12/05 07:49:04;;;;;;;22.60;11.75;;;;;;;-2.64;99.63;99185.31;1845151;77;21051;-59
2022/12/05 07:51:34;;;;;;;17.92;11.20;;;;;;;-2.67;99.49;99183.05;1836386;77;21072;-59
2022/12/05 07:54:01;;;;;;;13.28;8.68;;;;;;;-2.67;99.77;99184.35;1839901;77;20899;-59
2022/12/05 07:56:28;;;;;;;12.30;7.90;;;;;;;-2.64;99.80;99181.39;1843809;77;21097;-59
2022/12/05 07:58:54;;;;;;;12.85;7.80;;;;;;;-2.61;99.75;99174.45;1838562;77;21007;-61
2022/12/05 08:01:24;;;;;;;17.23;8.40;;;;;;;-2.63;99.61;99168.57;1844776;77;20916;-58
2022/12/05 08:03:56;;;;;;;12.82;8.18;;;;;;;-2.65;99.69;99178.92;1836161;77;21477;-59
2022/12/05 08:06:31;;;;;;;13.30;7.53;;;;;;;-2.64;99.82;99174.00;1840713;77;20982;-59
2022/12/05 08:08:58;;;;;;;12.88;7.65;;;;;;;-2.60;99.74;99173.96;1801762;78;22083;-57
2022/12/05 08:11:29;;;;;;;15.53;9.20;;;;;;;-2.62;99.64;99170.22;1832901;77;21299;-59
2022/12/05 08:13:57;;;;;;;14.70;7.40;;;;;;;-2.61;99.83;99163.95;1834004;77;21065;-61
2022/12/05 08:16:28;;;;;;;13.75;8.28;;;;;;;-2.61;99.46;99167.07;1839004;77;21002;-59
2022/12/05 08:18:59;;;;;;;15.65;7.50;;;;;;;-2.64;99.56;99163.02;1770817;80;21086;-58
2022/12/05 08:21:26;;;;;;;13.20;8.28;;;;;;;-2.65;99.50;99155.31;1832920;77;21787;-58
2022/12/05 08:23:53;;;;;;;11.63;8.20;;;;;;;-2.69;99.56;99165.36;1831918;77;20980;-59
2022/12/05 08:26:25;;;;;;;11.53;7.40;;;;;;;-2.69;99.65;99153.55;1845473;77;21489;-59
2022/12/05 08:28:54;;;;;;;11.53;7.95;;;;;;;-2.67;99.67;99157.30;1839672;77;21077;-60
2022/12/05 08:31:23;;;;;;;15.32;7.95;;;;;;;-2.66;99.82;99164.98;1845919;77;21485;-59
2022/12/05 08:33:50;;;;;;;9.70;7.55;;;;;;;-2.64;99.62;99164.83;1837035;77;21743;-58
2022/12/05 08:36:19;;;;;;;11.53;8.03;;;;;;;-2.65;99.68;99161.87;1835950;77;21097;-58
2022/12/05 08:38:46;;;;;;;11.43;7.47;;;;;;;-2.64;99.67;99168.76;1840546;77;20994;-57
2022/12/05 08:41:15;;;;;;;14.20;8.98;;;;;;;-2.64;99.77;99154.33;1845315;77;21047;-57
2022/12/05 08:43:43;;;;;;;16.65;9.23;;;;;;;-2.64;99.73;99160.89;1847353;77;20876;-59
2022/12/05 08:46:10;;;;;;;19.35;9.25;;;;;;;-2.64;99.80;99159.58;1825098;77;21359;-59
2022/12/05 08:48:37;;;;;;;15.55;9.40;;;;;;;-2.64;99.87;99159.09;1820955;77;21499;-57
2022/12/05 08:51:06;;;;;;;15.43;9.00;;;;;;;-2.62;99.88;99155.78;1823885;77;21387;-57
2022/12/05 08:53:34;;;;;;;10.88;7.90;;;;;;;-2.58;100.00;99153.61;1837034;77;20955;-58
2022/12/05 08:56:03;;;;;;;14.10;8.25;;;;;;;-2.55;99.85;99145.39;1825328;77;21364;-58
2022/12/05 08:58:30;;;;;;;15.28;9.88;;;;;;;-2.54;99.70;99147.03;1848021;77;21113;-58
2022/12/05 09:01:08;;;;;;;14.15;9.18;;;;;;;-2.53;99.85;99144.70;1846893;77;21421;-59
2022/12/05 09:03:40;;;;;;;13.38;9.20;;;;;;;-2.47;99.85;99142.70;1832360;77;20930;-59
2022/12/05 09:06:16;;;;;;;13.32;8.73;;;;;;;-2.42;99.80;99131.14;1848194;77;21502;-58
2022/12/05 09:08:43;;;;;;;;;;;;;;;-2.40;99.35;99133.11;1838370;77;20959;-58
2022/12/05 09:11:17;;;;;;;14.55;8.33;;;;;;;-2.43;99.16;99128.22;1823276;77;21886;-59
2022/12/05 09:13:45;;;;;;;15.30;8.90;;;;;;;-2.47;98.96;99127.75;1847894;77;21478;-58
2022/12/05 09:16:21;;;;;;;16.32;10.13;;;;;;;-2.47;98.85;99126.95;1839651;77;20993;-58
2022/12/05 09:18:48;;;;;;;14.38;8.40;;;;;;;-2.49;99.08;99126.30;1814128;78;21009;-57
2022/12/05 09:21:19;;;;;;;14.45;8.28;;;;;;;-2.49;98.97;99131.54;1814739;79;20998;-58
2022/12/05 09:23:46;;;;;;;13.58;8.95;;;;;;;-2.50;98.92;99116.81;1815404;79;22126;-58
2022/12/05 09:26:14;;;;;;;11.95;8.70;;;;;;;-2.51;98.79;99117.30;1818637;77;21076;-58
2022/12/05 09:28:42;;;;;;;13.05;8.90;;;;;;;-2.51;99.08;99116.48;1832531;77;21003;-58
2022/12/05 09:31:18;;;;;;;15.50;10.00;;;;;;;-2.48;98.87;99109.57;1837171;77;21545;-58
2022/12/05 09:33:47;;;;;;;13.20;8.78;;;;;;;-2.48;98.62;99110.88;1836258;78;20983;-58
2022/12/05 09:36:26;;;;;;;11.80;7.95;;;;;;;-2.48;98.83;99110.39;1852809;77;21109;-58
2022/12/05 09:38:54;;;;;;;13.30;8.78;;;;;;;-2.45;98.58;99107.91;1842025;77;20967;-57
2022/12/05 09:42:08;;;;;;;12.28;7.95;;;;;;;-2.49;98.42;99093.50;1845157;77;20935;-58
2022/12/05 09:45:13;;;;;;;13.15;8.05;;;;;;;-2.50;98.41;99100.58;1835454;77;21059;-57
2022/12/05 09:47:57;;;;;;;20.25;7.62;;;;;;;-2.51;98.45;99092.38;1831406;77;21394;-59
2022/12/05 09:50:28;;;;;;;11.97;7.20;;;;;;;-2.48;98.32;99100.39;1815711;79;21119;-56
2022/12/05 09:53:32;;;;;;;12.60;8.03;;;;;;;-2.47;98.41;99091.54;1842509;77;21025;-58
2022/12/05 09:56:14;;;;;;;15.75;8.15;;;;;;;-2.43;98.29;99092.80;1832626;77;21400;-67
2022/12/05 09:58:53;;;;;;;15.90;9.18;;;;;;;-2.44;98.26;99093.77;1815242;78;20927;-67
2022/12/05 10:01:34;;;;;;;15.70;10.10;;;;;;;-2.40;98.27;99101.63;1822789;77;20975;-63
2022/12/05 10:04:33;;;;;;;13.85;9.93;;;;;;;-2.35;98.29;99094.00;1837935;77;21245;-60
2022/12/05 10:07:26;;;;;;;15.28;8.90;;;;;;;-2.30;98.19;99089.02;1840674;76;21556;-61
2022/12/05 10:10:24;;;;;;;15.75;7.78;;;;;;;-2.24;97.95;99085.69;1831302;77;21035;-62
2022/12/05 10:13:15;;;;;;;12.35;7.37;;;;;;;-2.22;97.69;99086.31;1814241;77;20979;-60
2022/12/05 10:15:47;;;;;;;11.45;7.60;;;;;;;-2.22;97.38;99079.76;1849047;77;21421;-71
2022/12/05 10:18:47;;;;;;;14.40;8.08;;;;;;;-2.23;97.17;99080.73;1848618;77;21166;-58
2022/12/05 10:21:22;;;;;;;12.50;8.45;;;;;;;-2.26;97.14;99089.00;1846159;77;20911;-59
2022/12/05 10:24:01;;;;;;;18.32;8.15;;;;;;;-2.21;97.40;99085.30;1845549;77;20946;-59
2022/12/05 10:26:35;;;;;;;10.85;7.65;;;;;;;-2.18;97.23;99085.77;1848293;77;21450;-64
2022/12/05 10:29:10;;;;;;;12.85;7.90;;;;;;;-2.18;96.84;99077.08;1847958;77;21062;-57
2022/12/05 10:31:37;;;;;;;15.68;8.83;;;;;;;-2.18;96.90;99079.20;1861524;77;22335;-60
2022/12/05 10:34:14;;;;;;;10.25;7.30;;;;;;;-2.14;96.87;99077.02;1847441;77;20966;-58
2022/12/05 10:36:52;;;;;;;15.75;8.50;;;;;;;-2.11;96.61;99069.60;1850202;77;20955;-59
2022/12/05 10:39:18;;;;;;;10.78;7.62;;;;;;;-2.09;96.58;99074.66;1849615;77;21016;-57
2022/12/05 10:41:45;;;;;;;12.10;7.15;;;;;;;-2.08;96.51;99071.05;1849684;77;21053;-60
2022/12/05 10:44:14;;;;;;;14.45;7.70;;;;;;;-2.10;96.29;99071.73;1857212;77;21641;-57
2022/12/05 10:46:40;;;;;;;15.28;7.97;;;;;;;-2.12;96.29;99076.36;1853368;77;20923;-61
2022/12/05 10:49:11;;;;;;;15.53;9.08;;;;;;;-2.13;96.15;99076.03;1855257;77;21030;-58
2022/12/05 10:51:37;;;;;;;14.50;9.25;;;;;;;-2.14;96.27;99077.02;1814569;77;21028;-59
2022/12/05 10:54:23;;;;;;;11.60;7.58;;;;;;;-2.15;96.45;99070.97;1843452;77;21101;-62
2022/12/05 10:56:51;;;;;;;;;;;;;;;-2.13;96.50;99073.41;1850186;77;21023;-57
2022/12/05 10:59:23;;;;;;;16.90;8.28;;;;;;;-2.12;96.34;99063.23;1856558;77;20079;-58
2022/12/05 11:01:55;;;;;;;13.13;8.75;;;;;;;-2.15;96.46;99070.16;1782025;78;21026;-57
2022/12/05 11:04:26;;;;;;;10.32;7.83;;;;;;;-2.15;96.56;99063.59;1808533;78;20857;-59
2022/12/05 11:06:57;;;;;;;10.93;8.03;;;;;;;-2.16;96.31;99051.45;1802922;78;20955;-61
2022/12/05 11:09:31;;;;;;;11.90;7.92;;;;;;;-2.18;96.47;99057.39;1802462;78;21975;-64
2022/12/05 11:12:19;;;;;;;10.95;7.60;;;;;;;-2.16;96.41;99058.02;1787435;78;21489;-58
2022/12/05 11:15:18;;;;;;;16.75;8.93;;;;;;;-2.16;96.53;99064.58;1780032;78;21470;-58
2022/12/05 11:17:45;;;;;;;13.80;9.73;;;;;;;-2.11;96.61;99058.28;1792893;79;20963;-64
2022/12/05 11:20:20;;;;;;;13.68;7.80;;;;;;;-2.07;96.48;99054.28;1796628;79;22077;-63
2022/12/05 11:22:55;;;;;;;18.00;9.78;;;;;;;-2.05;95.99;99051.49;1787038;79;21165;-62
2022/12/05 11:25:29;;;;;;;39.18;22.00;;;;;;;-2.10;95.96;99042.33;1819600;78;21379;-59
2022/12/05 11:27:58;;;;;;;34.40;19.73;;;;;;;-2.06;96.23;99038.86;1813134;78;21462;-61
2022/12/05 11:30:27;;;;;;;26.82;12.70;;;;;;;-2.03;96.14;99037.19;1806969;78;21014;-59
2022/12/05 11:33:21;;;;;;;25.12;13.08;;;;;;;-1.97;96.04;99023.30;1798916;78;20999;-58
2022/12/05 11:35:48;;;;;;;47.53;26.57;;;;;;;-1.92;95.65;99021.44;1791612;79;21790;-58
2022/12/05 11:38:16;;;;;;;24.07;16.12;;;;;;;-1.97;95.41;99024.62;1778153;79;21022;-59
2022/12/05 11:41:10;;;;;;;12.68;8.40;;;;;;;-1.95;95.66;99025.23;1797644;78;20947;-58
2022/12/05 11:43:43;;;;;;;12.95;8.53;;;;;;;-1.92;95.47;99022.25;1807922;78;21404;-61
2022/12/05 11:46:42;;;;;;;29.15;17.30;;;;;;;-1.94;95.39;99015.06;1739408;80;21054;-61
2022/12/05 11:49:27;;;;;;;23.95;15.30;;;;;;;-1.97;95.03;99023.30;1810309;78;21228;-60
2022/12/05 11:52:36;;;;;;;15.50;10.98;;;;;;;-2.02;95.20;99010.41;1754829;80;21051;-59
2022/12/05 11:55:17;;;;;;;20.92;14.10;;;;;;;-2.09;95.17;98995.41;1806184;78;21014;-58
2022/12/05 11:58:16;;;;;;;28.23;18.70;;;;;;;-2.13;95.54;99009.09;1818624;78;21507;-58
2022/12/05 12:00:49;;;;;;;14.45;9.10;;;;;;;-2.09;95.81;99010.34;1806315;78;21058;-61
2022/12/05 12:03:31;;;;;;;16.82;8.78;;;;;;;-2.02;95.93;98993.34;1789436;79;21099;-62
2022/12/05 12:06:20;;;;;;;13.98;8.25;;;;;;;-1.99;95.72;99005.61;1804049;78;21513;-60
2022/12/05 12:09:13;;;;;;;12.43;8.85;;;;;;;-1.98;95.69;98997.24;1811880;78;21517;-58
2022/12/05 12:12:07;;;;;;;16.62;10.72;;;;;;;-2.02;95.67;98992.84;1778765;80;21439;-62
2022/12/05 12:14:48;;;;;;;14.73;9.45;;;;;;;-2.04;95.82;98997.97;1803675;78;21426;-61
2022/12/05 12:17:32;;;;;;;13.62;8.25;;;;;;;-2.02;95.96;98990.72;1812655;78;21201;-59
2022/12/05 12:20:33;;;;;;;11.45;7.70;;;;;;;-2.06;95.77;98994.23;1813315;78;21029;-60
2022/12/05 12:23:08;;;;;;;12.88;8.15;;;;;;;-2.09;96.02;98990.66;1791748;79;21419;-60
2022/12/05 12:25:53;;;;;;;15.20;9.13;;;;;;;-2.07;96.02;98989.17;1776318;79;21045;-61
2022/12/05 12:28:44;;;;;;;16.15;10.40;;;;;;;-2.12;95.78;98992.36;1798184;78;20927;-59
2022/12/05 12:31:25;;;;;;;25.62;13.70;;;;;;;-2.12;96.01;98984.48;1781730;79;21122;-58
2022/12/05 12:34:21;;;;;;;17.27;10.45;;;;;;;-2.08;95.93;98980.48;1778291;80;21382;-62
2022/12/05 12:37:04;;;;;;;16.73;9.83;;;;;;;-2.07;96.05;98984.71;1771901;80;21470;-60
2022/12/05 12:39:39;;;;;;;15.58;7.50;;;;;;;-2.05;96.06;98981.42;1801148;78;20904;-60
2022/12/05 12:42:23;;;;;;;16.37;9.90;;;;;;;-2.03;95.92;98971.55;1819431;78;21054;-60
2022/12/05 12:45:02;;;;;;;15.90;10.45;;;;;;;-2.03;95.96;98985.17;1786329;80;23052;-57
2022/12/05 12:47:49;;;;;;;17.27;9.15;;;;;;;-2.05;95.95;98974.86;1803744;78;21458;-59
2022/12/05 12:50:25;;;;;;;24.20;9.53;;;;;;;-2.09;96.03;98977.52;1779344;80;20944;-58
2022/12/05 12:53:15;;;;;;;;;;;;;;;-2.09;96.21;98981.47;1764249;80;21541;-58
2022/12/05 12:56:22;;;;;;;16.45;8.63;;;;;;;-2.09;96.22;98971.78;1790572;80;20084;-59
2022/12/05 12:59:01;;;;;;;11.80;8.10;;;;;;;-2.14;96.24;98975.95;1759720;80;21132;-60
2022/12/05 13:01:42;;;;;;;12.50;7.90;;;;;;;-2.15;96.46;98979.59;1770291;80;20999;-58
2022/12/05 13:04:16;;;;;;;10.58;7.92;;;;;;;-2.18;96.41;98969.45;1789909;79;21465;-59
2022/12/05 13:07:04;;;;;;;12.98;8.60;;;;;;;-2.22;96.63;98967.72;1801453;78;21498;-59
2022/12/05 13:09:46;;;;;;;9.68;7.10;;;;;;;-2.24;96.93;98971.00;1778632;79;21077;-58
2022/12/05 13:12:17;;;;;;;10.03;7.17;;;;;;;-2.21;97.03;98965.39;1779892;79;21262;-60
2022/12/05 13:14:58;;;;;;;12.23;6.28;;;;;;;-2.21;97.12;98955.38;1791075;79;20942;-59
2022/12/05 13:17:26;;;;;;;11.08;7.72;;;;;;;-2.21;96.96;98971.13;1793425;79;21074;-60
2022/12/05 13:19:56;;;;;;;11.85;7.30;;;;;;;-2.22;97.02;98965.09;1792224;79;21524;-59
2022/12/05 13:22:24;;;;;;;12.82;7.15;;;;;;;-2.21;97.06;98961.45;1809265;78;20962;-61
2022/12/05 13:24:52;;;;;;;13.95;8.33;;;;;;;-2.21;97.22;98964.56;1774251;80;21287;-59
2022/12/05 13:27:21;;;;;;;13.65;8.38;;;;;;;-2.23;97.28;98961.32;1842714;77;20970;-59
2022/12/05 13:30:00;;;;;;;13.93;8.43;;;;;;;-2.25;97.58;98966.77;1845144;77;21528;-59
2022/12/05 13:32:35;;;;;;;14.15;7.33;;;;;;;-2.20;97.69;98955.71;1829397;77;21159;-59
2022/12/05 13:35:10;;;;;;;11.65;7.42;;;;;;;-2.20;97.58;98948.66;1821003;77;21067;-60
2022/12/05 13:43:23;;;;;;;26.17;14.53;;;;;;;-2.28;97.56;98961.88;1838700;77;20958;-58
2022/12/05 13:46:10;;;;;;;17.10;9.35;;;;;;;-2.27;97.60;98950.39;1827056;77;20896;-58
2022/12/05 13:48:41;;;;;;;17.73;11.28;;;;;;;-2.25;97.65;98958.07;1844208;77;20919;-60
2022/12/05 13:51:37;;;;;;;16.37;9.10;;;;;;;-2.27;97.50;98956.14;1842150;77;21066;-59
2022/12/05 13:54:20;;;;;;;19.62;10.70;;;;;;;-2.31;97.56;98956.20;1766599;80;20980;-58
2022/12/05 13:57:00;;;;;;;21.25;14.73;;;;;;;-2.30;97.42;98949.94;1828084;77;20924;-57
